Terminal Aerodrome Forecast
Issued by NWS

Home | Current Version | Previous Version | Text Only | Print | Product List | Glossary On
Versions: 1 2 3 4 5 6 7 8 9 10 11 12 13
208
FTUS43 KICT 261124
TAFHUT
TAF
KHUT 261124Z 2612/2712 05007KT P6SM SCT250
     FM261400 36012KT P6SM SCT250
     FM270000 04006KT P6SM SKC
     FM270600 12008KT P6SM VCTS BKN040CB
     FM271000 12008KT P6SM SCT001 BKN020=

USA.gov is the U.S. government's official web portal to all federal, state and local government web resources and services.